Time;durP1;ratioP1;P1;durP2;ratioP2;P2;SDS_P1;SDS_P2;PMS_P1;PMS_P2;Temp;Humidity;BMP_temperature;BMP_pressure;BME280_temperature;BME280_humidity;BME280_pressure;Samples;Min_cycle;Max_cycle;Signal;HPM_P1;HPM_P2
2022/03/10 00:01:06;;;;;;;11.47;4.70;;;;;;;4.71;50.13;100280.00;4845048;29;20050;-62
2022/03/10 00:03:35;;;;;;;10.90;5.27;;;;;;;4.69;50.71;100279.09;4845278;29;20405;-63
2022/03/10 00:06:04;;;;;;;11.45;4.97;;;;;;;4.69;50.24;100279.97;4844469;29;20316;-63
2022/03/10 00:08:33;;;;;;;11.87;4.30;;;;;;;4.76;50.42;100273.44;4845221;29;20486;-63
2022/03/10 00:11:03;;;;;;;10.43;5.35;;;;;;;4.84;49.91;100274.53;4845189;29;20277;-63
2022/03/10 00:13:32;;;;;;;14.15;5.95;;;;;;;4.84;50.18;100282.13;4844709;29;20065;-62
2022/03/10 00:16:01;;;;;;;8.13;3.77;;;;;;;4.85;50.09;100276.25;4844656;29;20065;-63
2022/03/10 00:18:30;;;;;;;9.45;5.22;;;;;;;4.88;50.45;100281.41;4829130;29;20091;-63
2022/03/10 00:20:59;;;;;;;13.30;5.13;;;;;;;4.85;50.32;100286.34;4844753;29;20056;-62
2022/03/10 00:23:28;;;;;;;9.10;3.28;;;;;;;4.80;50.52;100285.34;4844916;29;20409;-62
2022/03/10 00:25:57;;;;;;;12.07;5.13;;;;;;;4.69;50.52;100282.50;4844947;29;20094;-63
2022/03/10 00:28:28;;;;;;;10.70;4.28;;;;;;;4.72;50.20;100286.78;4845353;29;20298;-62
2022/03/10 00:30:57;;;;;;;11.18;5.55;;;;;;;4.73;50.04;100280.91;4845380;29;20396;-62
2022/03/10 00:33:26;;;;;;;12.13;5.35;;;;;;;4.70;50.85;100276.59;4844476;29;20064;-62
2022/03/10 00:35:55;;;;;;;10.15;5.43;;;;;;;4.66;51.23;100289.97;4844664;29;20054;-63
2022/03/10 00:38:24;;;;;;;12.15;5.43;;;;;;;4.69;50.68;100284.16;4844423;29;20061;-63
2022/03/10 00:40:53;;;;;;;15.10;5.37;;;;;;;4.72;51.25;100290.19;4844358;29;20045;-62
2022/03/10 00:43:23;;;;;;;14.53;5.93;;;;;;;4.72;51.43;100291.84;4845133;29;20553;-62
2022/03/10 00:45:53;;;;;;;9.52;4.75;;;;;;;4.78;51.04;100286.97;4844324;29;20099;-63
2022/03/10 00:48:23;;;;;;;11.45;5.68;;;;;;;4.85;51.28;100291.41;4844292;29;20068;-63
2022/03/10 00:50:52;;;;;;;12.90;6.13;;;;;;;4.82;51.32;100291.34;4844454;29;20467;-62
2022/03/10 00:53:21;;;;;;;13.27;5.83;;;;;;;4.86;51.29;100288.09;4844192;29;20102;-62
2022/03/10 00:55:51;;;;;;;12.03;5.50;;;;;;;4.89;51.12;100290.72;4844062;29;20057;-63
2022/03/10 00:58:19;;;;;;;14.88;5.85;;;;;;;4.83;51.48;100295.56;4844350;29;20673;-63
2022/03/10 01:00:51;;;;;;;14.70;6.32;;;;;;;4.83;50.90;100293.03;4844352;29;20130;-63
2022/03/10 01:03:22;;;;;;;13.27;5.95;;;;;;;4.79;51.04;100298.81;4827706;29;20054;-63
2022/03/10 01:05:51;;;;;;;16.23;6.57;;;;;;;4.67;51.71;100306.00;4843772;29;20046;-62
2022/03/10 01:08:20;;;;;;;14.40;6.47;;;;;;;4.59;51.73;100313.31;4843908;29;20054;-63
2022/03/10 01:10:48;;;;;;;14.52;6.05;;;;;;;4.63;51.93;100309.25;4843867;29;20042;-62
2022/03/10 01:13:19;;;;;;;12.70;6.10;;;;;;;4.53;52.01;100317.34;4844095;29;20078;-62
2022/03/10 01:15:48;;;;;;;14.45;6.80;;;;;;;4.42;52.36;100303.47;4843855;29;20054;-63
2022/03/10 01:18:18;;;;;;;13.80;6.38;;;;;;;4.50;52.60;100317.22;4842803;29;20462;-62
2022/03/10 01:20:48;;;;;;;17.20;6.65;;;;;;;4.44;52.35;100317.03;4843688;29;20046;-63
2022/03/10 01:23:17;;;;;;;14.70;6.20;;;;;;;4.44;52.84;100317.03;4843928;29;20501;-62
2022/03/10 01:25:52;;;;;;;19.13;6.95;;;;;;;4.44;52.87;100317.03;4843833;29;20110;-62
2022/03/10 01:28:21;;;;;;;10.93;5.10;;;;;;;4.30;52.66;100313.16;4843571;29;20049;-63
2022/03/10 01:30:50;;;;;;;19.50;7.35;;;;;;;4.28;53.32;100324.88;4843483;29;20050;-63
2022/03/10 01:33:19;;;;;;;13.23;7.10;;;;;;;4.21;53.73;100323.81;4843443;29;20133;-62
2022/03/10 01:35:49;;;;;;;19.08;7.78;;;;;;;4.19;53.71;100329.63;4843399;29;20042;-62
2022/03/10 01:38:18;;;;;;;13.25;6.25;;;;;;;4.10;54.43;100334.34;4843407;29;20056;-63
2022/03/10 01:40:47;;;;;;;16.20;8.43;;;;;;;4.07;53.92;100341.03;4843325;29;20065;-63
2022/03/10 01:43:16;;;;;;;11.27;4.67;;;;;;;4.05;53.87;100337.56;4843635;29;20038;-62
2022/03/10 01:45:45;;;;;;;19.80;7.73;;;;;;;4.06;54.61;100341.81;4843421;29;20401;-63
2022/03/10 01:48:14;;;;;;;15.95;7.72;;;;;;;3.96;54.15;100331.31;4843205;29;20110;-62
2022/03/10 01:50:43;;;;;;;19.47;8.03;;;;;;;3.96;54.27;100343.94;4843606;29;20493;-62
2022/03/10 01:53:14;;;;;;;14.48;6.85;;;;;;;4.00;54.20;100341.59;4843939;29;20060;-62
2022/03/10 01:55:47;;;;;;;17.30;6.47;;;;;;;4.05;54.52;100342.59;4843053;29;20088;-62
2022/03/10 01:58:16;;;;;;;18.27;7.43;;;;;;;4.03;54.24;100344.22;4843184;29;20128;-63
2022/03/10 02:00:45;;;;;;;15.77;7.05;;;;;;;3.93;55.24;100344.72;4843417;29;20077;-63
2022/03/10 02:03:14;;;;;;;18.83;7.83;;;;;;;3.97;55.48;100344.00;4842973;29;20049;-62
2022/03/10 02:05:43;;;;;;;15.70;6.77;;;;;;;3.91;54.77;100338.72;4842925;29;20050;-62
2022/03/10 02:10:53;;;;;;;17.17;7.90;;;;;;;3.82;55.44;100345.97;4842942;29;20316;-62
2022/03/10 02:13:22;;;;;;;14.75;7.20;;;;;;;3.78;55.60;100341.63;4842854;29;20081;-62
2022/03/10 02:18:40;;;;;;;16.55;7.60;;;;;;;3.68;55.47;100349.66;4812433;29;20079;-63
2022/03/10 02:21:09;;;;;;;11.20;5.33;;;;;;;3.69;56.43;100348.88;4843144;29;20077;-63
2022/03/10 02:23:39;;;;;;;19.83;8.07;;;;;;;3.68;56.05;100349.66;4842867;29;20046;-63
2022/03/10 02:26:09;;;;;;;15.82;7.15;;;;;;;3.64;56.62;100362.09;4843039;29;20461;-62
2022/03/10 02:28:40;;;;;;;16.67;7.20;;;;;;;3.69;56.49;100361.50;4842601;29;20050;-63
2022/03/10 02:31:09;;;;;;;15.23;7.10;;;;;;;3.59;56.49;100364.47;4843065;29;20045;-62
2022/03/10 02:33:39;;;;;;;15.80;7.50;;;;;;;3.60;56.26;100363.63;4842718;29;20053;-63
2022/03/10 02:36:08;;;;;;;15.02;7.45;;;;;;;3.56;57.14;100369.38;4843005;29;20424;-62
2022/03/10 02:38:37;;;;;;;17.35;8.35;;;;;;;3.57;56.97;100371.13;4842773;29;20046;-62
2022/03/10 02:41:07;;;;;;;17.80;8.13;;;;;;;3.53;56.73;100379.34;4842623;29;20090;-63
2022/03/10 02:43:36;;;;;;;19.30;7.93;;;;;;;3.48;56.56;100380.84;4842998;29;20050;-63
2022/03/10 02:46:05;;;;;;;21.17;8.40;;;;;;;3.42;57.23;100380.63;4843023;29;20401;-62
2022/03/10 02:48:35;;;;;;;18.40;8.88;;;;;;;3.37;57.15;100382.09;4842449;29;20053;-63
2022/03/10 02:51:04;;;;;;;20.48;8.25;;;;;;;3.32;57.56;100383.56;4843156;29;20049;-63
2022/03/10 02:53:33;;;;;;;19.13;7.13;;;;;;;3.41;57.70;100388.13;4842620;29;20045;-63
2022/03/10 02:56:01;;;;;;;13.88;7.30;;;;;;;3.41;57.63;100388.97;4842475;29;20372;-62
2022/03/10 02:58:32;;;;;;;18.33;7.53;;;;;;;3.43;58.21;100394.97;4842916;29;20436;-62
2022/03/10 03:01:01;;;;;;;16.92;6.82;;;;;;;3.47;58.60;100394.28;4842521;29;20058;-63
2022/03/10 03:03:30;;;;;;;19.92;8.15;;;;;;;3.52;57.57;100402.00;4842859;29;20046;-63
2022/03/10 03:05:59;;;;;;;17.33;7.95;;;;;;;3.47;57.90;100404.38;4842364;29;20046;-63
2022/03/10 03:22:33;;;;;;;17.77;8.88;;;;;;;3.21;59.02;100423.53;5112018;27;20416;-64
2022/03/10 03:25:02;;;;;;;19.02;8.57;;;;;;;3.15;59.29;100429.97;5111117;28;20127;-64
2022/03/10 03:27:31;;;;;;;12.07;5.38;;;;;;;3.21;59.40;100425.19;5111430;28;20044;-64
2022/03/10 03:30:00;;;;;;;14.17;7.90;;;;;;;3.13;59.33;100427.38;5111326;28;20102;-64
2022/03/10 03:32:29;;;;;;;10.82;5.63;;;;;;;3.09;59.60;100430.59;5111026;28;20040;-64
2022/03/10 03:34:58;;;;;;;13.93;6.43;;;;;;;3.11;59.71;100430.66;5110925;28;20067;-64
2022/03/10 03:37:27;;;;;;;11.43;5.50;;;;;;;3.18;60.02;100445.22;5111121;28;20402;-64
2022/03/10 03:39:58;;;;;;;11.35;5.35;;;;;;;3.28;59.12;100442.28;5110953;27;20040;-64
2022/03/10 03:42:29;;;;;;;12.63;5.00;;;;;;;3.24;58.43;100443.81;5110828;28;20048;-64
2022/03/10 03:44:58;;;;;;;12.20;5.50;;;;;;;3.23;59.05;100448.78;5110869;28;20079;-64
2022/03/10 03:47:27;;;;;;;12.13;5.28;;;;;;;3.23;58.40;100449.66;5110730;28;20490;-64
2022/03/10 03:49:56;;;;;;;9.20;3.73;;;;;;;3.23;57.90;100454.72;5110698;28;20047;-64
2022/03/10 03:52:25;;;;;;;7.88;3.70;;;;;;;3.27;57.72;100445.59;5110625;28;20043;-63
2022/03/10 03:54:54;;;;;;;6.33;2.00;;;;;;;3.34;57.67;100453.47;5110601;28;20538;-64
2022/03/10 03:57:24;;;;;;;7.35;2.92;;;;;;;3.34;56.34;100452.59;5110611;28;20058;-63
2022/03/10 03:59:53;;;;;;;6.25;2.60;;;;;;;3.41;55.78;100459.59;5110783;28;20560;-64
2022/03/10 04:02:22;;;;;;;5.53;2.67;;;;;;;3.42;55.23;100460.47;5110688;28;20407;-64
2022/03/10 04:04:52;;;;;;;4.80;2.25;;;;;;;3.43;54.81;100470.66;5109246;28;20040;-63
2022/03/10 04:07:22;;;;;;;4.60;2.03;;;;;;;3.40;55.08;100473.03;5110250;28;20052;-63
2022/03/10 04:09:51;;;;;;;6.15;2.50;;;;;;;3.47;53.93;100469.97;5110351;28;20055;-64
2022/03/10 04:12:20;;;;;;;5.88;2.47;;;;;;;3.48;54.42;100474.19;5110208;28;20041;-64
2022/03/10 04:14:51;;;;;;;4.60;2.00;;;;;;;3.47;54.17;100475.00;5109061;28;20048;-64
2022/03/10 04:17:19;;;;;;;4.57;1.92;;;;;;;3.50;53.18;100481.84;5110192;28;20503;-64
2022/03/10 04:19:49;;;;;;;5.15;1.85;;;;;;;3.56;53.02;100475.38;5110090;28;20040;-64
2022/03/10 04:22:19;;;;;;;4.80;2.22;;;;;;;3.57;53.32;100488.84;5102789;28;20068;-64
2022/03/10 04:24:48;;;;;;;5.90;1.95;;;;;;;3.56;52.67;100490.50;5096436;27;20043;-64
2022/03/10 04:27:17;;;;;;;4.15;1.90;;;;;;;3.51;53.07;100479.38;5096316;28;20047;-63
2022/03/10 04:29:46;;;;;;;5.17;2.17;;;;;;;3.48;52.77;100498.59;5096594;28;20047;-64
2022/03/10 04:32:17;;;;;;;6.30;3.00;;;;;;;3.44;52.52;100505.16;5096191;28;20072;-64
2022/03/10 04:34:46;;;;;;;5.05;2.22;;;;;;;3.34;52.57;100505.56;5096591;28;20375;-63
2022/03/10 04:37:15;;;;;;;4.73;2.33;;;;;;;3.33;53.24;100501.34;5096504;28;20040;-64
2022/03/10 04:39:44;;;;;;;6.07;2.72;;;;;;;3.35;52.94;100507.31;5096462;28;20044;-64
2022/03/10 04:42:13;;;;;;;4.43;1.98;;;;;;;3.16;52.82;100487.19;5096120;28;20048;-64
2022/03/10 04:44:42;;;;;;;5.57;2.23;;;;;;;3.33;53.01;100516.47;5094863;28;20040;-64
2022/03/10 04:47:10;;;;;;;6.30;2.40;;;;;;;3.31;52.84;100523.13;5095997;28;20048;-64
2022/03/10 04:49:41;;;;;;;5.35;2.28;;;;;;;3.28;53.01;100528.03;5096532;28;20383;-63
2022/03/10 04:52:10;;;;;;;6.80;2.22;;;;;;;3.29;52.90;100535.66;5095921;28;20105;-64
2022/03/10 04:54:39;;;;;;;3.93;2.20;;;;;;;3.18;52.68;100533.50;5095925;28;20036;-64
2022/03/10 04:57:08;;;;;;;7.90;2.30;;;;;;;3.18;53.85;100536.00;5096152;28;20059;-64
2022/03/10 04:59:37;;;;;;;5.30;2.40;;;;;;;3.11;53.63;100539.06;5095741;28;20273;-64
2022/03/10 05:02:05;;;;;;;5.72;2.60;;;;;;;2.93;53.93;100508.06;5095791;28;20051;-64
2022/03/10 05:04:35;;;;;;;4.70;2.40;;;;;;;3.09;53.31;100535.63;5096002;28;20044;-64
2022/03/10 05:07:06;;;;;;;5.70;2.50;;;;;;;3.12;53.09;100538.28;5096007;28;20044;-63
2022/03/10 05:09:35;;;;;;;5.35;2.72;;;;;;;3.12;52.70;100551.75;5095926;28;20048;-64
2022/03/10 05:12:05;;;;;;;6.53;2.25;;;;;;;2.91;53.18;100534.81;5095502;28;20048;-64
2022/03/10 05:14:34;;;;;;;5.68;2.75;;;;;;;3.00;53.60;100557.94;5095834;28;20048;-64
2022/03/10 05:17:03;;;;;;;5.35;2.60;;;;;;;2.96;53.43;100558.56;5096322;28;20054;-64
2022/03/10 05:19:33;;;;;;;4.53;2.20;;;;;;;2.96;53.23;100568.66;5095641;28;20550;-64
2022/03/10 05:22:03;;;;;;;6.57;2.60;;;;;;;2.92;53.69;100572.72;5093954;28;20396;-64
2022/03/10 05:24:33;;;;;;;6.38;2.70;;;;;;;2.88;54.07;100580.09;5095365;28;20050;-64
2022/03/10 05:27:02;;;;;;;5.88;2.42;;;;;;;2.93;53.52;100596.28;5095329;28;20052;-64
2022/03/10 05:29:31;;;;;;;5.45;1.83;;;;;;;2.93;52.70;100588.72;5094176;28;20522;-63
2022/03/10 05:32:00;;;;;;;3.97;1.88;;;;;;;2.92;52.79;100592.03;5095692;28;20039;-63
2022/03/10 05:34:29;;;;;;;4.57;2.43;;;;;;;2.84;53.60;100603.41;5094426;28;20050;-64
2022/03/10 05:36:58;;;;;;;8.00;2.87;;;;;;;2.77;53.20;100611.50;5095066;28;20276;-64
2022/03/10 05:39:27;;;;;;;7.23;2.67;;;;;;;2.80;52.70;100612.50;5095815;28;20040;-64
2022/03/10 05:41:57;;;;;;;5.77;2.70;;;;;;;2.81;52.70;100623.47;5095114;28;20498;-64
2022/03/10 05:44:26;;;;;;;6.20;2.70;;;;;;;2.79;53.00;100635.09;5094850;28;20507;-63
2022/03/10 05:46:55;;;;;;;6.77;2.33;;;;;;;2.78;53.01;100638.44;5094843;28;20491;-62
2022/03/10 05:49:24;;;;;;;6.40;2.75;;;;;;;2.61;53.10;100605.78;5095109;28;20131;-62
2022/03/10 05:51:53;;;;;;;4.97;2.60;;;;;;;2.78;52.99;100635.91;5094685;28;20036;-63
2022/03/10 05:54:22;;;;;;;6.77;2.87;;;;;;;2.73;53.09;100645.78;5094789;28;20047;-62
2022/03/10 05:56:51;;;;;;;6.23;2.53;;;;;;;2.57;53.03;100616.50;5094975;28;20063;-63
2022/03/10 05:59:21;;;;;;;7.90;3.33;;;;;;;2.76;53.73;100648.44;5094932;28;20364;-64
2022/03/10 06:01:51;;;;;;;7.10;2.60;;;;;;;2.84;53.28;100653.81;5094558;28;20075;-63
2022/03/10 06:04:20;;;;;;;7.63;3.25;;;;;;;2.89;53.65;100648.22;5095614;28;20536;-63
2022/03/10 06:06:49;;;;;;;7.05;3.08;;;;;;;3.00;53.00;100657.09;5094369;28;20132;-63
2022/03/10 06:09:18;;;;;;;9.18;2.35;;;;;;;3.05;53.20;100664.88;5093223;28;20047;-63
2022/03/10 06:11:47;;;;;;;4.20;2.33;;;;;;;3.12;52.88;100664.38;5094311;28;20040;-64
2022/03/10 06:14:17;;;;;;;7.55;3.20;;;;;;;3.22;52.06;100674.06;5094589;28;20040;-64
2022/03/10 06:16:48;;;;;;;6.22;2.53;;;;;;;3.31;52.44;100675.31;5094715;28;20066;-64
2022/03/10 06:19:17;;;;;;;5.75;2.38;;;;;;;3.43;51.55;100672.50;5093133;28;20054;-63
2022/03/10 06:21:46;;;;;;;6.97;2.60;;;;;;;3.55;50.90;100674.69;5094080;28;20056;-64
2022/03/10 06:24:15;;;;;;;5.20;2.15;;;;;;;3.73;50.35;100676.31;5094255;28;20401;-63
2022/03/10 06:26:44;;;;;;;7.73;2.73;;;;;;;3.82;50.63;100671.66;5094132;28;20072;-63
2022/03/10 06:29:13;;;;;;;5.25;2.50;;;;;;;3.99;49.14;100675.75;5094404;28;20280;-63
2022/03/10 06:31:42;;;;;;;;;;;;;;;4.00;49.23;100682.53;5094644;28;20419;-65
2022/03/10 06:34:13;;;;;;;7.20;2.50;;;;;;;4.07;49.04;100687.03;5094052;28;19986;-62
2022/03/10 06:36:42;;;;;;;5.15;2.33;;;;;;;4.03;49.07;100677.59;5093935;28;20388;-65
2022/03/10 06:39:13;;;;;;;7.07;2.80;;;;;;;4.22;48.13;100693.50;5094252;28;20052;-63
2022/03/10 06:41:42;;;;;;;5.57;2.58;;;;;;;4.39;48.99;100684.94;5092874;28;20403;-62
2022/03/10 06:44:11;;;;;;;6.37;2.80;;;;;;;4.48;48.19;100680.25;5094081;28;20043;-63
2022/03/10 06:46:39;;;;;;;6.28;2.75;;;;;;;4.70;47.63;100693.78;5093917;28;20487;-63
2022/03/10 06:49:08;;;;;;;6.77;2.80;;;;;;;4.94;47.29;100696.41;5093711;28;20060;-63
2022/03/10 06:51:39;;;;;;;7.82;2.90;;;;;;;4.94;47.61;100701.47;5093604;28;20044;-64
2022/03/10 06:54:07;;;;;;;6.68;3.08;;;;;;;5.09;47.25;100707.06;5093938;28;20506;-64
2022/03/10 06:56:37;;;;;;;5.70;2.63;;;;;;;5.27;47.24;100712.84;5093960;28;20036;-63
2022/03/10 06:59:07;;;;;;;7.15;2.47;;;;;;;5.31;46.46;100708.72;5093766;28;20048;-64
2022/03/10 07:01:36;;;;;;;5.93;2.60;;;;;;;5.35;46.71;100691.19;5093578;28;20044;-63
2022/03/10 07:04:05;;;;;;;6.65;2.45;;;;;;;5.62;45.68;100715.75;5093632;28;20048;-63
2022/03/10 07:06:34;;;;;;;5.38;2.55;;;;;;;5.74;46.01;100711.13;5093489;28;20044;-63
2022/03/10 07:09:05;;;;;;;6.47;2.33;;;;;;;5.50;45.22;100715.31;5093911;28;20048;-63
2022/03/10 07:11:34;;;;;;;6.05;2.88;;;;;;;5.60;45.15;100709.78;5093667;28;20044;-63
2022/03/10 07:14:03;;;;;;;5.13;2.60;;;;;;;5.64;44.72;100706.56;5093387;28;20047;-64
2022/03/10 07:16:32;;;;;;;6.60;3.10;;;;;;;5.74;44.04;100716.19;5093432;28;20048;-64
2022/03/10 07:19:01;;;;;;;5.07;2.63;;;;;;;5.94;43.98;100720.31;5093664;28;20854;-64
2022/03/10 07:21:30;;;;;;;6.25;2.28;;;;;;;5.99;44.04;100716.28;5092223;28;20066;-64
2022/03/10 07:23:59;;;;;;;5.65;2.60;;;;;;;5.92;43.29;100727.00;5093408;28;20048;-64
2022/03/10 07:26:29;;;;;;;5.20;2.27;;;;;;;5.78;43.38;100733.25;5093339;28;20045;-64
2022/03/10 07:28:59;;;;;;;5.75;2.47;;;;;;;5.92;43.15;100737.16;5093779;28;20044;-64
2022/03/10 07:31:28;;;;;;;7.28;2.70;;;;;;;5.88;43.25;100731.09;5093871;28;20067;-64
2022/03/10 07:33:59;;;;;;;4.93;2.70;;;;;;;6.01;42.84;100719.72;5093129;28;20044;-64
2022/03/10 07:36:28;;;;;;;7.07;2.97;;;;;;;6.06;42.71;100730.88;5093086;28;20044;-64
2022/03/10 07:38:59;;;;;;;7.47;2.85;;;;;;;6.07;42.28;100732.59;5093232;28;20044;-62
2022/03/10 07:41:29;;;;;;;6.07;2.73;;;;;;;6.30;42.72;100726.63;5093080;28;20040;-64
2022/03/10 07:44:00;;;;;;;7.93;2.75;;;;;;;6.31;41.87;100725.81;5093182;28;20063;-64
2022/03/10 07:46:29;;;;;;;6.00;2.50;;;;;;;6.27;42.32;100726.53;5093242;28;20036;-63
2022/03/10 07:48:58;;;;;;;6.00;2.73;;;;;;;6.55;41.60;100724.06;5093136;28;20040;-63
2022/03/10 07:51:27;;;;;;;5.32;2.72;;;;;;;6.72;41.53;100717.84;5093526;28;20045;-63
2022/03/10 07:53:56;;;;;;;5.67;2.30;;;;;;;7.02;41.38;100712.84;5092967;28;20052;-62
2022/03/10 07:56:25;;;;;;;8.63;2.72;;;;;;;7.35;41.05;100715.50;5093027;28;20043;-62
2022/03/10 07:58:55;;;;;;;6.07;2.57;;;;;;;7.26;40.38;100717.78;5096906;28;20459;-63
2022/03/10 08:01:24;;;;;;;5.50;2.47;;;;;;;7.32;40.15;100723.03;5096887;28;20040;-63
2022/03/10 08:03:53;;;;;;;5.47;2.75;;;;;;;7.56;40.57;100723.72;5096860;28;20568;-63
2022/03/10 08:06:24;;;;;;;5.07;2.37;;;;;;;7.52;39.87;100726.16;5097017;28;20043;-63
2022/03/10 08:08:53;;;;;;;5.43;2.60;;;;;;;7.15;39.43;100714.09;5096796;28;20051;-64
2022/03/10 08:11:22;;;;;;;4.10;2.13;;;;;;;7.01;39.18;100725.47;5095458;28;20042;-62
2022/03/10 08:13:51;;;;;;;6.40;2.85;;;;;;;6.92;39.51;100726.09;5097054;28;20040;-63
2022/03/10 08:16:22;;;;;;;7.13;2.67;;;;;;;6.94;39.79;100728.66;5096593;28;20060;-62
2022/03/10 08:18:51;;;;;;;6.05;2.60;;;;;;;6.78;39.42;100680.81;5096531;28;20052;-62
2022/03/10 08:21:19;;;;;;;7.77;3.23;;;;;;;7.23;39.39;100727.84;5096288;28;20411;-62
2022/03/10 08:23:48;;;;;;;5.78;2.75;;;;;;;7.32;39.21;100726.44;5096484;28;20097;-62
2022/03/10 08:26:18;;;;;;;8.53;3.30;;;;;;;7.22;39.17;100716.00;5096477;28;20074;-62
2022/03/10 08:28:51;;;;;;;7.72;2.97;;;;;;;7.46;38.08;100728.53;5096577;28;20304;-62
2022/03/10 08:31:22;;;;;;;5.25;2.97;;;;;;;7.41;36.57;100723.31;5096320;28;20048;-62
2022/03/10 08:33:51;;;;;;;7.45;3.22;;;;;;;7.02;38.16;100732.28;5096397;28;20135;-62
2022/03/10 08:36:20;;;;;;;5.63;2.30;;;;;;;7.47;38.49;100737.84;5096403;28;20044;-63
2022/03/10 08:38:49;;;;;;;8.27;2.93;;;;;;;7.45;36.53;100732.75;5095996;28;20264;-65
2022/03/10 08:41:18;;;;;;;6.20;3.15;;;;;;;7.24;36.09;100730.47;5095991;28;20090;-63
2022/03/10 08:43:47;;;;;;;6.20;2.90;;;;;;;7.36;35.88;100729.94;5096061;28;20052;-62
2022/03/10 08:46:18;;;;;;;5.78;2.58;;;;;;;7.32;35.81;100733.19;5096145;28;20048;-64
2022/03/10 08:48:49;;;;;;;5.20;2.40;;;;;;;7.24;35.87;100727.06;5096330;28;20500;-65
2022/03/10 08:51:18;;;;;;;5.95;2.83;;;;;;;7.49;35.78;100732.00;5095534;28;20044;-64
2022/03/10 08:53:47;;;;;;;6.40;2.70;;;;;;;7.53;35.48;100733.84;5095769;28;20395;-64
2022/03/10 08:56:15;;;;;;;6.10;2.65;;;;;;;7.53;34.99;100733.84;5095876;28;20032;-64
2022/03/10 08:58:44;;;;;;;5.40;2.50;;;;;;;7.22;35.12;100726.16;5096027;28;20485;-64
2022/03/10 09:01:13;;;;;;;6.45;2.97;;;;;;;7.56;34.72;100728.81;5095768;28;20040;-64
2022/03/10 09:03:53;;;;;;;4.88;2.40;;;;;;;7.81;34.15;100733.78;5096288;28;20376;-64
2022/03/10 09:06:22;;;;;;;6.70;2.83;;;;;;;8.03;34.49;100733.53;5095939;28;20040;-64
2022/03/10 09:08:51;;;;;;;6.57;3.00;;;;;;;8.14;33.68;100741.41;5095455;28;20097;-64
2022/03/10 09:11:20;;;;;;;8.50;3.17;;;;;;;7.86;33.82;100744.06;5095543;28;20044;-64
2022/03/10 09:13:49;;;;;;;5.53;2.50;;;;;;;7.88;34.22;100738.19;5095274;28;20047;-64
2022/03/10 09:16:19;;;;;;;6.45;3.08;;;;;;;7.95;33.88;100739.22;5095790;28;20033;-63
2022/03/10 09:18:48;;;;;;;6.00;3.22;;;;;;;7.82;34.08;100732.94;5095084;28;20062;-63
2022/03/10 09:21:19;;;;;;;6.53;2.83;;;;;;;7.70;34.15;100706.34;5095230;28;20056;-63
2022/03/10 09:23:49;;;;;;;5.78;2.97;;;;;;;7.84;33.16;100738.94;5095883;28;20050;-63
2022/03/10 09:26:18;;;;;;;7.03;2.88;;;;;;;8.07;33.73;100737.00;5095148;28;20051;-63
2022/03/10 09:28:47;;;;;;;6.35;2.85;;;;;;;8.19;33.78;100742.41;5095608;28;20040;-63
2022/03/10 09:31:17;;;;;;;6.82;3.10;;;;;;;8.20;33.42;100740.72;5095395;28;20101;-64
2022/03/10 09:33:46;;;;;;;6.18;2.65;;;;;;;8.41;33.58;100742.16;5095373;28;20376;-64
2022/03/10 09:36:15;;;;;;;6.70;2.58;;;;;;;8.62;32.59;100754.53;5094648;28;20036;-65
2022/03/10 09:38:46;;;;;;;7.00;3.00;;;;;;;8.29;33.50;100746.94;5094557;28;20040;-64
2022/03/10 09:41:17;;;;;;;7.05;2.78;;;;;;;8.36;34.09;100753.03;5095239;28;20778;-63
2022/03/10 09:43:48;;;;;;;6.78;3.17;;;;;;;8.30;34.06;100740.19;5094912;28;20048;-62
2022/03/10 09:46:17;;;;;;;8.80;3.13;;;;;;;8.70;33.87;100737.78;5095202;28;20442;-62
2022/03/10 09:48:47;;;;;;;6.65;2.90;;;;;;;8.70;33.25;100740.31;5094806;28;20036;-63
2022/03/10 09:51:16;;;;;;;7.55;3.15;;;;;;;8.64;33.27;100740.16;5094870;28;20052;-63
2022/03/10 09:53:47;;;;;;;5.97;3.13;;;;;;;8.56;34.08;100751.84;5094565;28;20051;-62
2022/03/10 09:56:16;;;;;;;4.68;2.35;;;;;;;8.98;33.04;100737.59;5094349;28;20052;-63
2022/03/10 09:58:45;;;;;;;6.88;2.88;;;;;;;9.10;32.33;100750.59;5094060;28;20050;-63
2022/03/10 10:01:14;;;;;;;5.20;2.70;;;;;;;9.14;31.43;100743.88;5093933;28;20121;-63
2022/03/10 10:03:43;;;;;;;5.82;2.55;;;;;;;9.04;31.82;100747.91;5094785;28;20048;-62
2022/03/10 10:06:12;;;;;;;5.70;2.07;;;;;;;9.59;32.63;100749.09;5094485;28;20093;-63
2022/03/10 10:08:43;;;;;;;6.35;2.45;;;;;;;9.62;31.80;100749.16;5094806;28;20774;-63
2022/03/10 10:11:15;;;;;;;6.07;2.33;;;;;;;10.11;31.51;100746.69;5093841;28;20062;-63
2022/03/10 10:13:51;;;;;;;5.35;2.35;;;;;;;9.99;30.74;100752.44;5094316;28;20040;-63
2022/03/10 10:16:21;;;;;;;8.88;2.80;;;;;;;9.99;31.19;100756.69;5094698;28;20076;-63
2022/03/10 10:18:55;;;;;;;5.57;2.80;;;;;;;9.79;30.74;100753.75;5094202;28;20036;-63
2022/03/10 10:21:25;;;;;;;5.40;3.03;;;;;;;9.94;30.75;100758.28;5093467;28;20052;-63
2022/03/10 10:23:55;;;;;;;;;;;;;;;9.93;30.69;100756.56;5094409;28;20052;-63
2022/03/10 10:26:28;;;;;;;5.25;2.45;;;;;;;9.59;30.46;100755.06;5093599;28;20424;-62
2022/03/10 10:28:58;;;;;;;6.95;2.80;;;;;;;9.71;31.85;100754.44;5093716;28;20483;-64
2022/03/10 10:31:26;;;;;;;5.97;2.80;;;;;;;10.09;31.67;100748.38;5094237;28;20056;-62
2022/03/10 10:33:58;;;;;;;5.65;2.90;;;;;;;10.37;30.61;100748.06;5094265;28;20044;-63
2022/03/10 10:36:29;;;;;;;12.45;3.40;;;;;;;10.56;30.52;100742.41;5094003;28;20093;-63
2022/03/10 10:39:08;;;;;;;5.85;2.50;;;;;;;10.29;30.52;100752.19;5093854;28;20044;-63
2022/03/10 10:41:40;;;;;;;5.75;2.90;;;;;;;10.19;29.95;100745.19;5093566;28;20451;-62
2022/03/10 10:44:10;;;;;;;6.30;2.72;;;;;;;10.62;30.02;100727.22;5093548;28;20056;-63
2022/03/10 10:46:41;;;;;;;5.30;2.85;;;;;;;10.92;30.32;100736.19;5093384;28;20052;-64
2022/03/10 10:49:11;;;;;;;6.88;2.95;;;;;;;11.10;30.23;100723.66;5092616;28;20486;-64
2022/03/10 10:51:44;;;;;;;6.30;2.80;;;;;;;11.32;30.62;100708.66;5094194;28;20512;-64
2022/03/10 10:54:25;;;;;;;9.10;2.65;;;;;;;11.58;30.16;100731.97;5093691;28;20061;-64
2022/03/10 10:57:01;;;;;;;6.07;2.47;;;;;;;11.52;29.93;100731.88;5093605;28;20127;-64
2022/03/10 10:59:31;;;;;;;6.45;3.17;;;;;;;11.09;29.96;100734.72;5093977;28;20388;-64
2022/03/10 11:02:10;;;;;;;9.23;3.08;;;;;;;11.13;29.39;100721.16;5093613;28;20056;-64
2022/03/10 11:04:41;;;;;;;6.47;2.92;;;;;;;10.86;29.61;100721.63;5093485;28;20048;-64
2022/03/10 11:07:11;;;;;;;6.90;3.13;;;;;;;10.80;29.84;100718.97;5093927;28;20499;-63
2022/03/10 11:09:41;;;;;;;7.45;3.10;;;;;;;10.97;29.44;100711.53;5093455;28;20130;-64
2022/03/10 11:12:14;;;;;;;5.38;2.40;;;;;;;11.17;29.66;100722.91;5094083;28;20044;-64
2022/03/10 11:14:44;;;;;;;6.65;2.70;;;;;;;10.97;28.95;100724.31;5093082;28;20044;-64
2022/03/10 11:17:15;;;;;;;8.35;3.90;;;;;;;10.73;29.32;100709.50;5093828;28;20139;-63
2022/03/10 11:19:46;;;;;;;6.47;3.08;;;;;;;10.85;30.29;100724.13;5093435;28;20044;-63
2022/03/10 11:22:27;;;;;;;8.43;3.17;;;;;;;11.22;29.55;100716.16;5092493;28;20572;-64
2022/03/10 11:25:21;;;;;;;7.20;3.08;;;;;;;11.74;29.31;100723.66;5092996;28;20070;-64
2022/03/10 11:27:55;;;;;;;9.65;3.30;;;;;;;11.32;28.42;100723.13;5093650;28;20055;-63
2022/03/10 11:30:26;;;;;;;6.18;3.15;;;;;;;10.76;28.79;100720.63;5093043;28;20040;-63
2022/03/10 11:33:05;;;;;;;6.65;3.08;;;;;;;10.65;29.33;100721.31;5095237;28;20051;-63
2022/03/10 11:35:39;;;;;;;6.30;3.05;;;;;;;10.62;29.51;100722.13;5096863;28;20040;-63
2022/03/10 11:38:09;;;;;;;6.50;3.03;;;;;;;10.98;30.59;100705.59;5096568;28;20464;-64
2022/03/10 11:40:56;;;;;;;5.80;2.85;;;;;;;11.19;29.42;100711.88;5096292;28;20047;-64
2022/03/10 11:43:34;;;;;;;6.53;2.80;;;;;;;11.49;29.15;100698.63;5097557;28;20119;-63
2022/03/10 11:46:21;;;;;;;6.03;2.90;;;;;;;11.91;28.75;100695.69;5097271;28;20044;-63
2022/03/10 11:49:09;;;;;;;5.95;2.75;;;;;;;11.99;28.04;100692.41;5096346;28;20052;-64
2022/03/10 11:51:47;;;;;;;6.07;2.58;;;;;;;11.40;27.32;100698.50;5097700;28;20135;-63
2022/03/10 11:54:21;;;;;;;5.28;2.67;;;;;;;11.79;27.35;100696.44;5096957;28;20070;-63
2022/03/10 11:57:09;;;;;;;5.32;2.95;;;;;;;12.24;27.57;100697.75;5095777;28;20044;-64
2022/03/10 11:59:47;;;;;;;4.10;2.38;;;;;;;12.79;27.24;100697.28;5095574;28;20503;-63
2022/03/10 12:02:30;;;;;;;5.38;2.88;;;;;;;12.27;26.05;100700.31;5096891;28;20052;-64